KELD/ELD METAR and TAF weather

Enter ICAO airport designator
Station Type Date Time Source
KELD METAR 2019/12/05 22:53 UTC NOAA

KELD 052253Z AUTO 14007KT 10SM CLR 17/04 A2999 RMK AO2 SLP154 T01720044


Station Type Date Time Source
KELD Decoded METAR 2019/12/05 22:53 UTC NOAA

SOUTH ARKANSAS REGIONAL, AR, United States (KELD) 33-13N 092-49W 81M
Dec 05, 2019 - 05:53 PM EST / 2019.12.05 2253 UTC
Wind: from the SE (140 degrees) at 8 MPH (7 KT):0
Visibility: 10 mile(s):0
Sky conditions: clear
Temperature: 63.0 F (17.2 C)
Dew Point: 39.9 F (4.4 C)
Relative Humidity: 42%
Pressure (altimeter): 29.99 in. Hg (1015 hPa)
ob: KELD 052253Z AUTO 14007KT 10SM CLR 17/04 A2999 RMK AO2 SLP154 T01720044
cycle: 23

Station Type Date Time Source
KELD TAF 2019/12/05 18:42 UTC NOAA

TAF KELD 051738Z 0518/0618 16008KT P6SM BKN250
FM060000 16005KT P6SM SCT120 SCT250
FM060300 16006KT P6SM BKN100
FM061100 19007KT P6SM VCSH BKN025 OVC080
FM061700 28005KT P6SM BKN015

Example: see airport list